sensor_id;sensor_type;location;lat;lon;timestamp;P1;durP1;ratioP1;P2;durP2;ratioP2
2680;SDS011;1350;42.134;24.708;2023-06-10T00:00:41;11.67;;;8.67;;
2680;SDS011;1350;42.134;24.708;2023-06-10T00:03:07;12.80;;;8.53;;
2680;SDS011;1350;42.134;24.708;2023-06-10T00:05:35;11.40;;;8.10;;
2680;SDS011;1350;42.134;24.708;2023-06-10T00:08:04;10.93;;;7.33;;
2680;SDS011;1350;42.134;24.708;2023-06-10T00:10:34;9.30;;;7.60;;
2680;SDS011;1350;42.134;24.708;2023-06-10T00:13:01;13.70;;;8.40;;
2680;SDS011;1350;42.134;24.708;2023-06-10T00:15:28;9.97;;;7.97;;
2680;SDS011;1350;42.134;24.708;2023-06-10T00:17:55;10.90;;;8.00;;
2680;SDS011;1350;42.134;24.708;2023-06-10T00:20:22;13.03;;;8.53;;
2680;SDS011;1350;42.134;24.708;2023-06-10T00:22:50;10.93;;;8.67;;
2680;SDS011;1350;42.134;24.708;2023-06-10T00:25:17;13.27;;;8.13;;
2680;SDS011;1350;42.134;24.708;2023-06-10T00:27:45;11.33;;;8.73;;
2680;SDS011;1350;42.134;24.708;2023-06-10T00:30:12;12.20;;;8.80;;
2680;SDS011;1350;42.134;24.708;2023-06-10T00:32:39;10.13;;;8.30;;
2680;SDS011;1350;42.134;24.708;2023-06-10T00:35:06;10.57;;;8.37;;
2680;SDS011;1350;42.134;24.708;2023-06-10T00:37:33;15.23;;;9.07;;
2680;SDS011;1350;42.134;24.708;2023-06-10T00:40:01;11.73;;;8.27;;
2680;SDS011;1350;42.134;24.708;2023-06-10T00:42:28;13.03;;;8.60;;
2680;SDS011;1350;42.134;24.708;2023-06-10T00:44:56;11.00;;;7.93;;
2680;SDS011;1350;42.134;24.708;2023-06-10T00:47:23;12.23;;;8.30;;
2680;SDS011;1350;42.134;24.708;2023-06-10T00:49:51;10.20;;;7.60;;
2680;SDS011;1350;42.134;24.708;2023-06-10T00:52:19;11.47;;;8.30;;
2680;SDS011;1350;42.134;24.708;2023-06-10T00:54:48;10.67;;;8.33;;
2680;SDS011;1350;42.134;24.708;2023-06-10T00:57:15;12.27;;;8.77;;
2680;SDS011;1350;42.134;24.708;2023-06-10T00:59:42;11.30;;;9.00;;
2680;SDS011;1350;42.134;24.708;2023-06-10T01:02:15;9.90;;;8.30;;
2680;SDS011;1350;42.134;24.708;2023-06-10T01:04:42;11.80;;;8.17;;
2680;SDS011;1350;42.134;24.708;2023-06-10T01:07:09;11.50;;;8.13;;
2680;SDS011;1350;42.134;24.708;2023-06-10T01:09:42;10.63;;;8.30;;
2680;SDS011;1350;42.134;24.708;2023-06-10T01:12:16;10.97;;;8.07;;
2680;SDS011;1350;42.134;24.708;2023-06-10T01:14:48;9.97;;;7.83;;
2680;SDS011;1350;42.134;24.708;2023-06-10T01:17:17;10.40;;;7.70;;
2680;SDS011;1350;42.134;24.708;2023-06-10T01:19:44;9.50;;;7.83;;
2680;SDS011;1350;42.134;24.708;2023-06-10T01:22:12;12.63;;;8.13;;
2680;SDS011;1350;42.134;24.708;2023-06-10T01:24:41;11.33;;;8.50;;
2680;SDS011;1350;42.134;24.708;2023-06-10T01:27:10;9.80;;;7.97;;
2680;SDS011;1350;42.134;24.708;2023-06-10T01:29:43;14.80;;;8.40;;
2680;SDS011;1350;42.134;24.708;2023-06-10T01:32:19;10.87;;;8.33;;
2680;SDS011;1350;42.134;24.708;2023-06-10T01:34:52;9.63;;;7.83;;
2680;SDS011;1350;42.134;24.708;2023-06-10T01:37:21;11.70;;;8.13;;
2680;SDS011;1350;42.134;24.708;2023-06-10T01:39:51;11.53;;;8.63;;
2680;SDS011;1350;42.134;24.708;2023-06-10T01:42:20;10.77;;;8.87;;
2680;SDS011;1350;42.134;24.708;2023-06-10T01:44:48;10.73;;;8.17;;
2680;SDS011;1350;42.134;24.708;2023-06-10T01:47:14;12.10;;;8.50;;
2680;SDS011;1350;42.134;24.708;2023-06-10T01:49:41;12.23;;;7.70;;
2680;SDS011;1350;42.134;24.708;2023-06-10T01:52:08;11.10;;;7.93;;
2680;SDS011;1350;42.134;24.708;2023-06-10T01:54:36;10.97;;;8.80;;
2680;SDS011;1350;42.134;24.708;2023-06-10T01:57:03;11.80;;;8.60;;
2680;SDS011;1350;42.134;24.708;2023-06-10T01:59:31;10.90;;;8.20;;
2680;SDS011;1350;42.134;24.708;2023-06-10T02:01:58;9.60;;;7.40;;
2680;SDS011;1350;42.134;24.708;2023-06-10T02:04:24;11.77;;;7.57;;
2680;SDS011;1350;42.134;24.708;2023-06-10T02:06:51;10.10;;;8.97;;
2680;SDS011;1350;42.134;24.708;2023-06-10T02:09:18;12.80;;;8.97;;
2680;SDS011;1350;42.134;24.708;2023-06-10T02:11:46;13.23;;;8.83;;
2680;SDS011;1350;42.134;24.708;2023-06-10T02:14:13;11.93;;;8.37;;
2680;SDS011;1350;42.134;24.708;2023-06-10T02:16:40;14.50;;;8.47;;
2680;SDS011;1350;42.134;24.708;2023-06-10T02:19:11;13.07;;;8.37;;
2680;SDS011;1350;42.134;24.708;2023-06-10T02:21:38;11.60;;;7.87;;
2680;SDS011;1350;42.134;24.708;2023-06-10T02:24:05;13.70;;;9.20;;
2680;SDS011;1350;42.134;24.708;2023-06-10T02:26:33;13.50;;;9.97;;
2680;SDS011;1350;42.134;24.708;2023-06-10T02:29:01;13.30;;;9.37;;
2680;SDS011;1350;42.134;24.708;2023-06-10T02:31:28;13.27;;;10.20;;
2680;SDS011;1350;42.134;24.708;2023-06-10T02:33:55;14.57;;;10.30;;
2680;SDS011;1350;42.134;24.708;2023-06-10T02:36:22;13.80;;;10.33;;
2680;SDS011;1350;42.134;24.708;2023-06-10T02:38:49;11.17;;;8.93;;
2680;SDS011;1350;42.134;24.708;2023-06-10T02:41:16;16.50;;;9.53;;
2680;SDS011;1350;42.134;24.708;2023-06-10T02:43:43;15.67;;;9.60;;
2680;SDS011;1350;42.134;24.708;2023-06-10T02:46:11;14.00;;;9.70;;
2680;SDS011;1350;42.134;24.708;2023-06-10T02:48:41;13.07;;;10.00;;
2680;SDS011;1350;42.134;24.708;2023-06-10T02:51:09;16.83;;;9.90;;
2680;SDS011;1350;42.134;24.708;2023-06-10T02:53:35;13.77;;;9.73;;
2680;SDS011;1350;42.134;24.708;2023-06-10T02:56:02;10.60;;;8.20;;
2680;SDS011;1350;42.134;24.708;2023-06-10T02:58:29;14.33;;;10.10;;
2680;SDS011;1350;42.134;24.708;2023-06-10T03:00:56;19.00;;;9.63;;
2680;SDS011;1350;42.134;24.708;2023-06-10T03:03:24;13.70;;;10.83;;
2680;SDS011;1350;42.134;24.708;2023-06-10T03:05:52;12.17;;;9.40;;
2680;SDS011;1350;42.134;24.708;2023-06-10T03:08:19;12.40;;;8.50;;
2680;SDS011;1350;42.134;24.708;2023-06-10T03:10:46;15.10;;;8.60;;
2680;SDS011;1350;42.134;24.708;2023-06-10T03:13:13;15.33;;;8.77;;
2680;SDS011;1350;42.134;24.708;2023-06-10T03:15:40;10.97;;;8.20;;
2680;SDS011;1350;42.134;24.708;2023-06-10T03:18:07;11.13;;;7.60;;
2680;SDS011;1350;42.134;24.708;2023-06-10T03:20:35;11.50;;;8.77;;
2680;SDS011;1350;42.134;24.708;2023-06-10T03:23:03;11.33;;;8.03;;
2680;SDS011;1350;42.134;24.708;2023-06-10T03:25:31;10.33;;;8.30;;
2680;SDS011;1350;42.134;24.708;2023-06-10T03:27:58;14.80;;;8.60;;
2680;SDS011;1350;42.134;24.708;2023-06-10T03:30:25;10.10;;;7.40;;
2680;SDS011;1350;42.134;24.708;2023-06-10T03:32:51;10.97;;;8.10;;
2680;SDS011;1350;42.134;24.708;2023-06-10T03:35:18;11.90;;;8.03;;
2680;SDS011;1350;42.134;24.708;2023-06-10T03:37:47;12.23;;;8.60;;
2680;SDS011;1350;42.134;24.708;2023-06-10T03:40:13;10.33;;;8.13;;
2680;SDS011;1350;42.134;24.708;2023-06-10T03:42:40;11.10;;;7.83;;
2680;SDS011;1350;42.134;24.708;2023-06-10T03:45:09;10.13;;;8.77;;
2680;SDS011;1350;42.134;24.708;2023-06-10T03:47:37;9.77;;;7.37;;
2680;SDS011;1350;42.134;24.708;2023-06-10T03:50:06;9.73;;;7.57;;
2680;SDS011;1350;42.134;24.708;2023-06-10T03:52:34;9.60;;;7.57;;
2680;SDS011;1350;42.134;24.708;2023-06-10T03:55:02;9.87;;;7.43;;
2680;SDS011;1350;42.134;24.708;2023-06-10T03:57:30;15.83;;;8.27;;
2680;SDS011;1350;42.134;24.708;2023-06-10T03:59:56;10.00;;;7.90;;
2680;SDS011;1350;42.134;24.708;2023-06-10T04:02:24;17.30;;;8.77;;
2680;SDS011;1350;42.134;24.708;2023-06-10T04:04:51;14.90;;;8.37;;
2680;SDS011;1350;42.134;24.708;2023-06-10T04:07:17;13.00;;;8.53;;
2680;SDS011;1350;42.134;24.708;2023-06-10T04:09:45;14.70;;;8.20;;
2680;SDS011;1350;42.134;24.708;2023-06-10T04:12:14;13.90;;;11.00;;
2680;SDS011;1350;42.134;24.708;2023-06-10T04:14:41;12.27;;;9.40;;
2680;SDS011;1350;42.134;24.708;2023-06-10T04:17:08;12.83;;;9.27;;
2680;SDS011;1350;42.134;24.708;2023-06-10T04:19:35;12.13;;;10.40;;
2680;SDS011;1350;42.134;24.708;2023-06-10T04:22:02;13.87;;;9.63;;
2680;SDS011;1350;42.134;24.708;2023-06-10T04:24:30;19.73;;;10.83;;
2680;SDS011;1350;42.134;24.708;2023-06-10T04:26:57;13.70;;;9.70;;
2680;SDS011;1350;42.134;24.708;2023-06-10T04:29:25;20.00;;;10.33;;
2680;SDS011;1350;42.134;24.708;2023-06-10T04:31:51;13.27;;;9.40;;
2680;SDS011;1350;42.134;24.708;2023-06-10T04:34:18;16.00;;;10.43;;
2680;SDS011;1350;42.134;24.708;2023-06-10T04:36:45;12.60;;;10.80;;
2680;SDS011;1350;42.134;24.708;2023-06-10T04:39:12;13.40;;;11.10;;
2680;SDS011;1350;42.134;24.708;2023-06-10T04:41:39;13.40;;;9.77;;
2680;SDS011;1350;42.134;24.708;2023-06-10T04:44:05;14.17;;;8.97;;
2680;SDS011;1350;42.134;24.708;2023-06-10T04:46:33;15.60;;;10.03;;
2680;SDS011;1350;42.134;24.708;2023-06-10T04:49:00;16.83;;;9.67;;
2680;SDS011;1350;42.134;24.708;2023-06-10T04:51:27;11.07;;;9.23;;
2680;SDS011;1350;42.134;24.708;2023-06-10T04:53:54;17.13;;;8.77;;
2680;SDS011;1350;42.134;24.708;2023-06-10T04:56:20;15.60;;;11.17;;
2680;SDS011;1350;42.134;24.708;2023-06-10T04:58:48;11.40;;;9.70;;
2680;SDS011;1350;42.134;24.708;2023-06-10T05:01:14;16.23;;;10.30;;
2680;SDS011;1350;42.134;24.708;2023-06-10T05:03:42;13.80;;;9.53;;
2680;SDS011;1350;42.134;24.708;2023-06-10T05:06:09;12.37;;;9.20;;
2680;SDS011;1350;42.134;24.708;2023-06-10T05:08:36;12.50;;;9.10;;
2680;SDS011;1350;42.134;24.708;2023-06-10T05:11:02;14.33;;;9.67;;
2680;SDS011;1350;42.134;24.708;2023-06-10T05:13:29;15.43;;;9.73;;
2680;SDS011;1350;42.134;24.708;2023-06-10T05:15:56;20.63;;;9.77;;
2680;SDS011;1350;42.134;24.708;2023-06-10T05:18:23;19.33;;;9.77;;
2680;SDS011;1350;42.134;24.708;2023-06-10T05:20:51;20.03;;;9.90;;
2680;SDS011;1350;42.134;24.708;2023-06-10T05:23:19;15.97;;;8.37;;
2680;SDS011;1350;42.134;24.708;2023-06-10T05:25:45;14.80;;;9.03;;
2680;SDS011;1350;42.134;24.708;2023-06-10T05:28:13;18.63;;;9.83;;
2680;SDS011;1350;42.134;24.708;2023-06-10T05:30:39;12.30;;;9.40;;
2680;SDS011;1350;42.134;24.708;2023-06-10T05:33:06;14.37;;;10.03;;
2680;SDS011;1350;42.134;24.708;2023-06-10T05:35:33;14.50;;;9.67;;
2680;SDS011;1350;42.134;24.708;2023-06-10T05:38:02;17.50;;;10.37;;
2680;SDS011;1350;42.134;24.708;2023-06-10T05:40:29;13.73;;;9.50;;
2680;SDS011;1350;42.134;24.708;2023-06-10T05:42:56;16.87;;;9.53;;
2680;SDS011;1350;42.134;24.708;2023-06-10T05:45:22;15.50;;;10.23;;
2680;SDS011;1350;42.134;24.708;2023-06-10T05:47:49;14.30;;;9.93;;
2680;SDS011;1350;42.134;24.708;2023-06-10T05:50:16;11.70;;;9.50;;
2680;SDS011;1350;42.134;24.708;2023-06-10T05:52:43;16.20;;;10.33;;
2680;SDS011;1350;42.134;24.708;2023-06-10T05:55:11;18.80;;;9.50;;
2680;SDS011;1350;42.134;24.708;2023-06-10T05:57:38;21.33;;;11.10;;
2680;SDS011;1350;42.134;24.708;2023-06-10T06:00:07;12.23;;;10.93;;
2680;SDS011;1350;42.134;24.708;2023-06-10T06:02:35;14.67;;;9.40;;
2680;SDS011;1350;42.134;24.708;2023-06-10T06:05:01;17.07;;;9.70;;
2680;SDS011;1350;42.134;24.708;2023-06-10T06:07:29;16.03;;;11.37;;
2680;SDS011;1350;42.134;24.708;2023-06-10T06:09:56;19.30;;;9.70;;
2680;SDS011;1350;42.134;24.708;2023-06-10T06:12:24;19.70;;;10.37;;
2680;SDS011;1350;42.134;24.708;2023-06-10T06:14:51;12.97;;;8.60;;
2680;SDS011;1350;42.134;24.708;2023-06-10T06:17:17;13.10;;;9.23;;
2680;SDS011;1350;42.134;24.708;2023-06-10T06:19:44;12.80;;;8.03;;
2680;SDS011;1350;42.134;24.708;2023-06-10T06:22:13;16.30;;;8.87;;
2680;SDS011;1350;42.134;24.708;2023-06-10T06:24:39;10.83;;;7.63;;
2680;SDS011;1350;42.134;24.708;2023-06-10T06:27:06;13.80;;;8.93;;
2680;SDS011;1350;42.134;24.708;2023-06-10T06:29:34;15.13;;;9.33;;
2680;SDS011;1350;42.134;24.708;2023-06-10T06:32:01;13.00;;;10.00;;
2680;SDS011;1350;42.134;24.708;2023-06-10T06:34:28;27.70;;;13.63;;
2680;SDS011;1350;42.134;24.708;2023-06-10T06:36:54;51.17;;;16.40;;
2680;SDS011;1350;42.134;24.708;2023-06-10T06:39:21;27.13;;;9.53;;
2680;SDS011;1350;42.134;24.708;2023-06-10T06:41:48;21.27;;;10.93;;
2680;SDS011;1350;42.134;24.708;2023-06-10T06:44:15;22.83;;;10.33;;
2680;SDS011;1350;42.134;24.708;2023-06-10T06:46:43;19.87;;;10.60;;
2680;SDS011;1350;42.134;24.708;2023-06-10T06:49:09;20.60;;;9.40;;
2680;SDS011;1350;42.134;24.708;2023-06-10T06:51:36;16.40;;;9.10;;
2680;SDS011;1350;42.134;24.708;2023-06-10T06:54:03;12.33;;;8.73;;
2680;SDS011;1350;42.134;24.708;2023-06-10T06:56:30;11.83;;;8.20;;
2680;SDS011;1350;42.134;24.708;2023-06-10T06:58:57;20.07;;;10.40;;
2680;SDS011;1350;42.134;24.708;2023-06-10T07:01:24;12.57;;;9.03;;
2680;SDS011;1350;42.134;24.708;2023-06-10T07:03:52;12.93;;;8.37;;
2680;SDS011;1350;42.134;24.708;2023-06-10T07:06:19;12.53;;;9.10;;
2680;SDS011;1350;42.134;24.708;2023-06-10T07:08:46;10.63;;;8.40;;
2680;SDS011;1350;42.134;24.708;2023-06-10T07:11:12;15.83;;;11.53;;
2680;SDS011;1350;42.134;24.708;2023-06-10T07:13:39;16.13;;;9.60;;
2680;SDS011;1350;42.134;24.708;2023-06-10T07:16:07;15.80;;;8.50;;
2680;SDS011;1350;42.134;24.708;2023-06-10T07:18:34;13.10;;;9.30;;
2680;SDS011;1350;42.134;24.708;2023-06-10T07:21:02;20.60;;;11.00;;
2680;SDS011;1350;42.134;24.708;2023-06-10T07:23:29;14.43;;;9.03;;
2680;SDS011;1350;42.134;24.708;2023-06-10T07:25:55;16.07;;;9.17;;
2680;SDS011;1350;42.134;24.708;2023-06-10T07:28:22;43.23;;;13.83;;
2680;SDS011;1350;42.134;24.708;2023-06-10T07:30:49;17.37;;;9.60;;
2680;SDS011;1350;42.134;24.708;2023-06-10T07:33:16;13.07;;;9.93;;
2680;SDS011;1350;42.134;24.708;2023-06-10T07:35:42;14.53;;;9.17;;
2680;SDS011;1350;42.134;24.708;2023-06-10T07:38:10;14.53;;;10.07;;
2680;SDS011;1350;42.134;24.708;2023-06-10T07:40:37;14.17;;;7.63;;
2680;SDS011;1350;42.134;24.708;2023-06-10T07:43:04;15.27;;;9.57;;
2680;SDS011;1350;42.134;24.708;2023-06-10T07:45:31;15.70;;;8.67;;
2680;SDS011;1350;42.134;24.708;2023-06-10T07:47:57;12.20;;;7.63;;
2680;SDS011;1350;42.134;24.708;2023-06-10T07:50:24;12.93;;;8.10;;
2680;SDS011;1350;42.134;24.708;2023-06-10T07:52:51;11.60;;;7.17;;
2680;SDS011;1350;42.134;24.708;2023-06-10T07:55:19;11.70;;;7.70;;
2680;SDS011;1350;42.134;24.708;2023-06-10T07:57:46;15.87;;;8.50;;
2680;SDS011;1350;42.134;24.708;2023-06-10T08:00:13;20.10;;;8.43;;
2680;SDS011;1350;42.134;24.708;2023-06-10T08:02:40;15.07;;;8.43;;
2680;SDS011;1350;42.134;24.708;2023-06-10T08:05:07;17.87;;;8.70;;
2680;SDS011;1350;42.134;24.708;2023-06-10T08:07:34;11.97;;;7.40;;
2680;SDS011;1350;42.134;24.708;2023-06-10T08:10:00;16.10;;;8.27;;
2680;SDS011;1350;42.134;24.708;2023-06-10T08:12:28;13.40;;;7.50;;
2680;SDS011;1350;42.134;24.708;2023-06-10T08:14:55;9.23;;;6.83;;
2680;SDS011;1350;42.134;24.708;2023-06-10T08:17:22;9.20;;;6.77;;
2680;SDS011;1350;42.134;24.708;2023-06-10T08:19:49;14.80;;;6.83;;
2680;SDS011;1350;42.134;24.708;2023-06-10T08:22:16;13.70;;;7.10;;
2680;SDS011;1350;42.134;24.708;2023-06-10T08:24:43;11.43;;;6.30;;
2680;SDS011;1350;42.134;24.708;2023-06-10T08:27:10;9.77;;;6.47;;
2680;SDS011;1350;42.134;24.708;2023-06-10T08:29:38;11.37;;;7.07;;
2680;SDS011;1350;42.134;24.708;2023-06-10T08:32:05;7.83;;;6.07;;
2680;SDS011;1350;42.134;24.708;2023-06-10T08:34:33;12.53;;;6.33;;
2680;SDS011;1350;42.134;24.708;2023-06-10T08:37:00;12.90;;;5.97;;
2680;SDS011;1350;42.134;24.708;2023-06-10T08:39:27;9.00;;;6.77;;
2680;SDS011;1350;42.134;24.708;2023-06-10T08:41:59;15.33;;;6.83;;
2680;SDS011;1350;42.134;24.708;2023-06-10T08:44:31;21.67;;;7.40;;
2680;SDS011;1350;42.134;24.708;2023-06-10T08:47:00;8.30;;;6.07;;
2680;SDS011;1350;42.134;24.708;2023-06-10T08:49:29;8.80;;;5.80;;
2680;SDS011;1350;42.134;24.708;2023-06-10T08:52:00;9.27;;;5.80;;
2680;SDS011;1350;42.134;24.708;2023-06-10T08:54:30;9.83;;;6.73;;
2680;SDS011;1350;42.134;24.708;2023-06-10T08:56:59;12.27;;;7.40;;
2680;SDS011;1350;42.134;24.708;2023-06-10T08:59:30;9.93;;;6.47;;
2680;SDS011;1350;42.134;24.708;2023-06-10T09:01:59;9.50;;;5.63;;
2680;SDS011;1350;42.134;24.708;2023-06-10T09:04:27;7.93;;;5.57;;
2680;SDS011;1350;42.134;24.708;2023-06-10T09:06:54;8.47;;;5.47;;
2680;SDS011;1350;42.134;24.708;2023-06-10T09:09:22;11.10;;;6.27;;
2680;SDS011;1350;42.134;24.708;2023-06-10T09:11:49;11.50;;;5.90;;
2680;SDS011;1350;42.134;24.708;2023-06-10T09:14:16;7.53;;;5.10;;
2680;SDS011;1350;42.134;24.708;2023-06-10T09:16:42;14.60;;;7.50;;
2680;SDS011;1350;42.134;24.708;2023-06-10T09:19:13;14.53;;;6.93;;
2680;SDS011;1350;42.134;24.708;2023-06-10T09:21:42;15.93;;;6.87;;
2680;SDS011;1350;42.134;24.708;2023-06-10T09:24:08;10.77;;;6.40;;
2680;SDS011;1350;42.134;24.708;2023-06-10T09:26:35;11.10;;;7.00;;
2680;SDS011;1350;42.134;24.708;2023-06-10T09:29:03;10.90;;;6.67;;
2680;SDS011;1350;42.134;24.708;2023-06-10T09:31:30;8.10;;;6.03;;
2680;SDS011;1350;42.134;24.708;2023-06-10T09:34:04;14.23;;;7.40;;
2680;SDS011;1350;42.134;24.708;2023-06-10T09:36:33;8.10;;;6.13;;
2680;SDS011;1350;42.134;24.708;2023-06-10T09:39:01;19.33;;;7.53;;
2680;SDS011;1350;42.134;24.708;2023-06-10T09:41:34;29.50;;;7.67;;
2680;SDS011;1350;42.134;24.708;2023-06-10T09:44:01;11.83;;;7.20;;
2680;SDS011;1350;42.134;24.708;2023-06-10T09:46:30;16.03;;;7.60;;
2680;SDS011;1350;42.134;24.708;2023-06-10T09:48:58;16.90;;;8.83;;
2680;SDS011;1350;42.134;24.708;2023-06-10T09:51:25;22.50;;;7.63;;
2680;SDS011;1350;42.134;24.708;2023-06-10T09:53:53;10.40;;;6.80;;
2680;SDS011;1350;42.134;24.708;2023-06-10T09:56:20;25.00;;;7.73;;
2680;SDS011;1350;42.134;24.708;2023-06-10T09:58:49;25.07;;;7.70;;
2680;SDS011;1350;42.134;24.708;2023-06-10T10:01:19;9.77;;;6.67;;
2680;SDS011;1350;42.134;24.708;2023-06-10T10:03:46;21.70;;;7.07;;
2680;SDS011;1350;42.134;24.708;2023-06-10T10:06:14;37.87;;;9.03;;
2680;SDS011;1350;42.134;24.708;2023-06-10T10:08:42;12.33;;;7.70;;
2680;SDS011;1350;42.134;24.708;2023-06-10T10:11:10;11.53;;;6.63;;
2680;SDS011;1350;42.134;24.708;2023-06-10T10:13:38;11.07;;;8.07;;
2680;SDS011;1350;42.134;24.708;2023-06-10T10:16:07;11.90;;;6.40;;
2680;SDS011;1350;42.134;24.708;2023-06-10T10:18:38;13.90;;;6.30;;
2680;SDS011;1350;42.134;24.708;2023-06-10T10:21:11;11.57;;;7.00;;
2680;SDS011;1350;42.134;24.708;2023-06-10T10:23:40;9.63;;;6.33;;
2680;SDS011;1350;42.134;24.708;2023-06-10T10:26:14;11.93;;;6.60;;
2680;SDS011;1350;42.134;24.708;2023-06-10T10:28:44;9.40;;;7.30;;
2680;SDS011;1350;42.134;24.708;2023-06-10T10:31:15;9.70;;;6.87;;
2680;SDS011;1350;42.134;24.708;2023-06-10T10:33:48;11.73;;;6.73;;
2680;SDS011;1350;42.134;24.708;2023-06-10T10:36:21;9.63;;;6.67;;
2680;SDS011;1350;42.134;24.708;2023-06-10T10:38:48;11.30;;;5.60;;
2680;SDS011;1350;42.134;24.708;2023-06-10T10:41:16;19.37;;;7.20;;
2680;SDS011;1350;42.134;24.708;2023-06-10T10:43:45;17.43;;;7.30;;
2680;SDS011;1350;42.134;24.708;2023-06-10T10:46:14;26.13;;;9.87;;
2680;SDS011;1350;42.134;24.708;2023-06-10T10:48:42;10.70;;;6.70;;
2680;SDS011;1350;42.134;24.708;2023-06-10T10:51:10;11.83;;;6.70;;
2680;SDS011;1350;42.134;24.708;2023-06-10T10:53:37;15.37;;;8.63;;
2680;SDS011;1350;42.134;24.708;2023-06-10T10:56:05;11.77;;;6.87;;
2680;SDS011;1350;42.134;24.708;2023-06-10T10:58:34;22.57;;;6.70;;
2680;SDS011;1350;42.134;24.708;2023-06-10T11:01:09;15.13;;;7.40;;
2680;SDS011;1350;42.134;24.708;2023-06-10T11:03:41;10.17;;;7.07;;
2680;SDS011;1350;42.134;24.708;2023-06-10T11:06:11;12.43;;;7.53;;
2680;SDS011;1350;42.134;24.708;2023-06-10T11:08:46;8.80;;;5.80;;
2680;SDS011;1350;42.134;24.708;2023-06-10T11:11:19;8.70;;;6.20;;
2680;SDS011;1350;42.134;24.708;2023-06-10T11:16:39;8.10;;;6.10;;
2680;SDS011;1350;42.134;24.708;2023-06-10T11:19:07;11.43;;;5.80;;
2680;SDS011;1350;42.134;24.708;2023-06-10T11:21:37;11.47;;;6.87;;
2680;SDS011;1350;42.134;24.708;2023-06-10T11:24:24;10.63;;;6.10;;
2680;SDS011;1350;42.134;24.708;2023-06-10T11:26:52;9.00;;;5.80;;
2680;SDS011;1350;42.134;24.708;2023-06-10T11:29:20;9.53;;;5.50;;
2680;SDS011;1350;42.134;24.708;2023-06-10T11:31:50;10.07;;;6.00;;
2680;SDS011;1350;42.134;24.708;2023-06-10T11:34:21;13.77;;;5.80;;
2680;SDS011;1350;42.134;24.708;2023-06-10T11:36:50;7.30;;;4.90;;
2680;SDS011;1350;42.134;24.708;2023-06-10T11:39:18;10.80;;;5.03;;
2680;SDS011;1350;42.134;24.708;2023-06-10T11:41:46;8.00;;;5.90;;
2680;SDS011;1350;42.134;24.708;2023-06-10T11:44:13;12.57;;;7.17;;
2680;SDS011;1350;42.134;24.708;2023-06-10T11:46:41;8.50;;;5.90;;
2680;SDS011;1350;42.134;24.708;2023-06-10T11:49:08;9.97;;;6.30;;
2680;SDS011;1350;42.134;24.708;2023-06-10T11:51:37;10.07;;;5.57;;
2680;SDS011;1350;42.134;24.708;2023-06-10T11:54:05;9.60;;;5.70;;
2680;SDS011;1350;42.134;24.708;2023-06-10T11:56:34;9.17;;;5.47;;
2680;SDS011;1350;42.134;24.708;2023-06-10T11:59:02;7.70;;;6.00;;
2680;SDS011;1350;42.134;24.708;2023-06-10T12:01:31;12.90;;;6.83;;
2680;SDS011;1350;42.134;24.708;2023-06-10T12:04:01;14.70;;;6.80;;
2680;SDS011;1350;42.134;24.708;2023-06-10T12:06:38;9.33;;;6.10;;
2680;SDS011;1350;42.134;24.708;2023-06-10T12:09:17;13.00;;;6.07;;
2680;SDS011;1350;42.134;24.708;2023-06-10T12:11:44;9.53;;;6.20;;
2680;SDS011;1350;42.134;24.708;2023-06-10T12:14:12;10.63;;;5.60;;
2680;SDS011;1350;42.134;24.708;2023-06-10T12:16:39;9.60;;;5.60;;
2680;SDS011;1350;42.134;24.708;2023-06-10T12:19:07;13.83;;;6.53;;
2680;SDS011;1350;42.134;24.708;2023-06-10T12:21:36;12.03;;;6.40;;
2680;SDS011;1350;42.134;24.708;2023-06-10T12:24:06;10.33;;;6.70;;
2680;SDS011;1350;42.134;24.708;2023-06-10T12:26:38;8.83;;;6.27;;
2680;SDS011;1350;42.134;24.708;2023-06-10T12:29:19;11.60;;;6.23;;
2680;SDS011;1350;42.134;24.708;2023-06-10T12:31:55;9.80;;;6.43;;
2680;SDS011;1350;42.134;24.708;2023-06-10T12:34:37;9.60;;;7.03;;
2680;SDS011;1350;42.134;24.708;2023-06-10T12:37:06;9.87;;;7.47;;
2680;SDS011;1350;42.134;24.708;2023-06-10T12:39:38;10.10;;;6.70;;
2680;SDS011;1350;42.134;24.708;2023-06-10T12:42:06;9.53;;;6.50;;
2680;SDS011;1350;42.134;24.708;2023-06-10T12:44:35;13.67;;;7.20;;
2680;SDS011;1350;42.134;24.708;2023-06-10T12:47:07;11.43;;;6.90;;
2680;SDS011;1350;42.134;24.708;2023-06-10T12:49:35;12.30;;;6.40;;
2680;SDS011;1350;42.134;24.708;2023-06-10T12:52:05;10.93;;;6.93;;
2680;SDS011;1350;42.134;24.708;2023-06-10T12:54:32;9.40;;;6.77;;
2680;SDS011;1350;42.134;24.708;2023-06-10T12:57:00;10.40;;;6.37;;
2680;SDS011;1350;42.134;24.708;2023-06-10T12:59:27;10.70;;;7.47;;
2680;SDS011;1350;42.134;24.708;2023-06-10T13:01:53;10.30;;;6.70;;
2680;SDS011;1350;42.134;24.708;2023-06-10T13:04:21;11.33;;;6.90;;
2680;SDS011;1350;42.134;24.708;2023-06-10T13:06:48;9.20;;;6.20;;
2680;SDS011;1350;42.134;24.708;2023-06-10T13:09:16;12.73;;;7.60;;
2680;SDS011;1350;42.134;24.708;2023-06-10T13:11:43;16.30;;;7.03;;
2680;SDS011;1350;42.134;24.708;2023-06-10T13:14:11;10.57;;;7.40;;
2680;SDS011;1350;42.134;24.708;2023-06-10T13:16:38;9.20;;;6.97;;
2680;SDS011;1350;42.134;24.708;2023-06-10T13:19:05;9.83;;;7.43;;
2680;SDS011;1350;42.134;24.708;2023-06-10T13:21:32;10.60;;;6.37;;
2680;SDS011;1350;42.134;24.708;2023-06-10T13:23:59;8.73;;;5.93;;
2680;SDS011;1350;42.134;24.708;2023-06-10T13:26:27;12.40;;;7.23;;
2680;SDS011;1350;42.134;24.708;2023-06-10T13:28:54;13.10;;;6.50;;
2680;SDS011;1350;42.134;24.708;2023-06-10T13:31:21;8.90;;;6.47;;
2680;SDS011;1350;42.134;24.708;2023-06-10T13:33:48;11.70;;;6.80;;
2680;SDS011;1350;42.134;24.708;2023-06-10T13:36:14;9.77;;;6.57;;
2680;SDS011;1350;42.134;24.708;2023-06-10T13:38:41;11.63;;;6.53;;
2680;SDS011;1350;42.134;24.708;2023-06-10T13:41:08;8.50;;;5.93;;
2680;SDS011;1350;42.134;24.708;2023-06-10T13:43:37;9.47;;;5.93;;
2680;SDS011;1350;42.134;24.708;2023-06-10T13:46:04;9.90;;;6.40;;
2680;SDS011;1350;42.134;24.708;2023-06-10T13:48:31;12.53;;;6.40;;
2680;SDS011;1350;42.134;24.708;2023-06-10T13:50:58;9.33;;;5.57;;
2680;SDS011;1350;42.134;24.708;2023-06-10T13:53:25;9.90;;;6.70;;
2680;SDS011;1350;42.134;24.708;2023-06-10T13:55:52;13.93;;;7.00;;
2680;SDS011;1350;42.134;24.708;2023-06-10T13:58:19;10.70;;;6.10;;
2680;SDS011;1350;42.134;24.708;2023-06-10T14:00:47;10.07;;;6.10;;
2680;SDS011;1350;42.134;24.708;2023-06-10T14:03:14;9.23;;;7.47;;
2680;SDS011;1350;42.134;24.708;2023-06-10T14:05:41;10.77;;;6.50;;
2680;SDS011;1350;42.134;24.708;2023-06-10T14:08:08;10.20;;;6.00;;
2680;SDS011;1350;42.134;24.708;2023-06-10T14:10:35;8.37;;;6.03;;
2680;SDS011;1350;42.134;24.708;2023-06-10T14:13:01;11.30;;;6.40;;
2680;SDS011;1350;42.134;24.708;2023-06-10T14:15:28;10.70;;;6.20;;
2680;SDS011;1350;42.134;24.708;2023-06-10T14:17:57;10.00;;;6.03;;
2680;SDS011;1350;42.134;24.708;2023-06-10T14:20:23;10.43;;;5.20;;
2680;SDS011;1350;42.134;24.708;2023-06-10T14:22:51;7.50;;;5.80;;
2680;SDS011;1350;42.134;24.708;2023-06-10T14:25:18;8.60;;;6.17;;
2680;SDS011;1350;42.134;24.708;2023-06-10T14:27:45;11.23;;;7.07;;
2680;SDS011;1350;42.134;24.708;2023-06-10T14:30:12;9.00;;;6.20;;
2680;SDS011;1350;42.134;24.708;2023-06-10T14:32:39;12.80;;;6.40;;
2680;SDS011;1350;42.134;24.708;2023-06-10T14:35:08;8.27;;;6.10;;
2680;SDS011;1350;42.134;24.708;2023-06-10T14:37:35;13.20;;;6.10;;
2680;SDS011;1350;42.134;24.708;2023-06-10T14:40:02;10.30;;;6.50;;
2680;SDS011;1350;42.134;24.708;2023-06-10T14:42:30;12.30;;;6.10;;
2680;SDS011;1350;42.134;24.708;2023-06-10T14:44:57;10.23;;;5.60;;
2680;SDS011;1350;42.134;24.708;2023-06-10T14:47:23;9.23;;;6.03;;
2680;SDS011;1350;42.134;24.708;2023-06-10T14:49:51;10.37;;;5.53;;
2680;SDS011;1350;42.134;24.708;2023-06-10T14:52:19;9.97;;;6.40;;
2680;SDS011;1350;42.134;24.708;2023-06-10T14:54:46;11.27;;;4.93;;